logo
Search for airport 
image banner adimage banner adimage banner ad
image banner ad

LFTZ - La Mole

Located in Saint-Tropez, France

ICAO - LFTZ, IATA - LTT

Data provided by Airmate  

General information

Coordinates: N43°12'19" E6°28'55"
Elevation is 63 feet MSL.
Magnetic variation is 2.22° East
View others Airports in Provence-Alpes-Côte-d'Azur

Operational data

Special qualification required
Current time UTC:
Current local time:
Weather at : LFMC - Le Luc Le Cannet ( 21 km )
METAR: LFMC 141730Z AUTO 04010KT 9999 ////// 30/20 Q1012
View NOTAMs / SUP AIP / TFR affecting this airport [VIEW]
Communications frequencies: [VIEW]

Runways:

RWY identifierQFULength (ft)Width (ft)SurfaceLDA (ft)
0662°351498ASPH3054
24242°351498ASPH3514

Airport contact information

Address: Saint-Tropez France

Handlers

Sky Valet St Tropez

Sky Valet St Tropez
[VIEW][VIEW]
+33674956892

Other aviation service providers

Aviation club (not for profit)

Aéroclub du Golfe de Saint-Tropez

Aéroclub du Golfe de Saint-Tropez

Aviation medical examiner

Dr Mauries Patrick

Dr Mauries Patrick
+33 494640573

Satellite view of LFTZ